Time;durP1;ratioP1;P1;durP2;ratioP2;P2;SDS_P1;SDS_P2;PMS_P1;PMS_P2;Temp;Humidity;BMP_temperature;BMP_pressure;BME280_temperature;BME280_humidity;BME280_pressure;Samples;Min_cycle;Max_cycle;Signal;HPM_P1;HPM_P2
2022/03/25 00:00:22;;;;;;;160.95;63.13;;;8.70;47.90;;;;;;5081563;28;20033;-75
2022/03/25 00:02:47;;;;;;;241.35;85.35;;;8.60;48.00;;;;;;5083229;28;20020;-76
2022/03/25 00:05:13;;;;;;;88.75;41.53;;;8.60;48.40;;;;;;5082425;28;20025;-75
2022/03/25 00:07:39;;;;;;;103.57;44.65;;;8.70;47.60;;;;;;5081708;28;20052;-75
2022/03/25 00:10:05;;;;;;;70.93;36.80;;;8.60;48.50;;;;;;5083653;28;20386;-76
2022/03/25 00:12:31;;;;;;;75.05;34.53;;;8.60;48.00;;;;;;5082435;28;20024;-76
2022/03/25 00:14:57;;;;;;;142.23;52.55;;;8.60;47.90;;;;;;5081828;28;20355;-76
2022/03/25 00:17:24;;;;;;;148.98;53.17;;;8.60;48.60;;;;;;5065272;28;20027;-74
2022/03/25 00:19:50;;;;;;;96.78;40.28;;;8.60;48.60;;;;;;5082158;28;20047;-76
2022/03/25 00:22:16;;;;;;;74.05;34.75;;;8.50;48.60;;;;;;5081300;28;20473;-76
2022/03/25 00:24:42;;;;;;;77.28;36.30;;;8.50;47.80;;;;;;5083212;28;20025;-73
2022/03/25 00:27:09;;;;;;;71.72;35.63;;;8.50;47.90;;;;;;5081442;28;20024;-77
2022/03/25 00:29:35;;;;;;;73.13;37.80;;;8.50;47.90;;;;;;5081696;28;20549;-76
2022/03/25 00:32:02;;;;;;;86.80;37.15;;;8.50;48.70;;;;;;5082891;28;20485;-75
2022/03/25 00:34:29;;;;;;;86.90;39.00;;;8.40;49.20;;;;;;5081575;28;20013;-76
2022/03/25 00:36:54;;;;;;;78.25;37.20;;;8.30;48.80;;;;;;5081970;28;20107;-76
2022/03/25 00:39:20;;;;;;;74.93;35.33;;;8.20;49.10;;;;;;5083045;28;20095;-76
2022/03/25 00:41:47;;;;;;;64.30;32.63;;;8.20;49.10;;;;;;5063259;28;20055;-77
2022/03/25 00:44:14;;;;;;;60.78;31.15;;;8.10;48.90;;;;;;5064113;28;20042;-77
2022/03/25 00:46:40;;;;;;;62.45;30.77;;;8.10;49.00;;;;;;5083149;28;20021;-75
2022/03/25 00:49:06;;;;;;;61.85;29.85;;;8.00;49.10;;;;;;5081265;28;20028;-76
2022/03/25 00:51:34;;;;;;;60.85;28.92;;;7.90;49.50;;;;;;5064023;28;20028;-76
2022/03/25 00:54:00;;;;;;;63.53;28.38;;;7.90;50.40;;;;;;5082991;28;20112;-75
2022/03/25 00:56:26;;;;;;;52.25;26.35;;;7.80;49.80;;;;;;5080575;28;20095;-76
2022/03/25 00:58:51;;;;;;;58.25;28.05;;;7.80;49.90;;;;;;5082229;28;20048;-76
2022/03/25 01:01:17;;;;;;;59.80;26.58;;;7.70;49.80;;;;;;5082394;28;20475;-75
2022/03/25 01:03:43;;;;;;;62.53;25.90;;;7.70;50.10;;;;;;5062850;28;20447;-78
2022/03/25 01:06:10;;;;;;;61.97;26.92;;;7.60;50.30;;;;;;5082591;28;20028;-75
2022/03/25 01:08:36;;;;;;;58.78;29.08;;;7.60;50.60;;;;;;5082613;28;20470;-75
2022/03/25 01:11:04;;;;;;;63.50;27.33;;;7.60;50.70;;;;;;5080716;28;20040;-75
2022/03/25 01:13:33;;;;;;;58.45;30.42;;;7.50;50.90;;;;;;5082277;28;20051;-75
2022/03/25 01:16:04;;;;;;;63.33;29.83;;;7.50;51.10;;;;;;5082549;28;20467;-76
2022/03/25 01:18:30;;;;;;;57.25;29.63;;;7.50;51.10;;;;;;5081384;28;20452;-76
2022/03/25 01:20:57;;;;;;;68.03;30.83;;;7.50;51.60;;;;;;5081506;28;20022;-77
2022/03/25 01:23:23;;;;;;;60.88;29.00;;;7.40;51.20;;;;;;5082748;28;20425;-74
2022/03/25 01:25:49;;;;;;;56.40;28.65;;;7.40;51.40;;;;;;5081101;28;20515;-76
2022/03/25 01:28:15;;;;;;;55.47;27.60;;;7.40;51.20;;;;;;5081589;28;20028;-75
2022/03/25 01:30:42;;;;;;;49.53;27.58;;;7.40;51.20;;;;;;5082919;28;20143;-75
2022/03/25 01:33:10;;;;;;;53.60;26.70;;;7.30;52.30;;;;;;5081671;28;20029;-77
2022/03/25 01:35:36;;;;;;;64.28;28.20;;;7.20;52.70;;;;;;5085286;28;20055;-77
2022/03/25 01:38:02;;;;;;;59.78;28.42;;;7.10;52.50;;;;;;5068552;28;20031;-77
2022/03/25 01:40:28;;;;;;;76.28;33.55;;;7.10;52.50;;;;;;5084463;28;20043;-76
2022/03/25 01:42:54;;;;;;;86.78;40.55;;;7.00;52.80;;;;;;5085309;28;20020;-76
2022/03/25 01:45:40;;;;;;;76.88;33.63;;;7.00;52.10;;;;;;5085857;28;20459;-73
2022/03/25 01:48:13;;;;;;;79.85;39.88;;;7.10;52.40;;;;;;5085870;28;20028;-75
2022/03/25 01:50:41;;;;;;;80.80;36.95;;;7.00;52.60;;;;;;5085656;28;20543;-75
2022/03/25 01:53:12;;;;;;;84.57;39.42;;;7.00;53.40;;;;;;5083735;28;20363;-75
2022/03/25 01:55:43;;;;;;;94.40;42.03;;;6.80;53.30;;;;;;5066801;28;20470;-75
2022/03/25 01:58:12;;;;;;;101.35;47.72;;;6.90;52.80;;;;;;5084514;28;20025;-74
2022/03/25 02:00:38;;;;;;;97.38;44.65;;;6.80;53.20;;;;;;5084149;28;20412;-77
2022/03/25 02:03:04;;;;;;;89.32;43.85;;;6.80;53.40;;;;;;5086026;28;20027;-77
2022/03/25 02:05:30;;;;;;;94.15;42.67;;;6.70;53.70;;;;;;5084561;28;20093;-76
2022/03/25 02:07:56;;;;;;;83.78;42.22;;;6.70;53.50;;;;;;5084547;28;20052;-75
2022/03/25 02:10:22;;;;;;;89.32;40.53;;;6.70;53.90;;;;;;5085893;28;20040;-76
2022/03/25 02:12:48;;;;;;;94.63;44.40;;;6.70;54.00;;;;;;5083665;28;20020;-77
2022/03/25 02:15:13;;;;;;;74.30;34.10;;;6.60;54.20;;;;;;5084778;28;20023;-78
2022/03/25 02:17:39;;;;;;;76.60;36.53;;;6.60;54.10;;;;;;5085198;28;20056;-75
2022/03/25 02:20:08;;;;;;;63.88;32.90;;;6.50;54.20;;;;;;5083649;28;20028;-75
2022/03/25 02:22:39;;;;;;;62.95;33.88;;;6.50;54.50;;;;;;5066464;28;20135;-76
2022/03/25 02:25:09;;;;;;;76.72;34.03;;;6.50;54.70;;;;;;5067459;28;20028;-76
2022/03/25 02:27:37;;;;;;;61.10;30.00;;;6.40;55.50;;;;;;5084528;28;20020;-74
2022/03/25 02:30:07;;;;;;;66.72;30.60;;;6.40;55.10;;;;;;5083038;28;20083;-75
2022/03/25 02:32:34;;;;;;;51.63;25.38;;;6.30;55.40;;;;;;5084488;28;20397;-76
2022/03/25 02:35:00;;;;;;;51.17;25.25;;;6.30;55.00;;;;;;5085034;28;20025;-76
2022/03/25 02:37:26;;;;;;;64.07;32.90;;;6.30;54.70;;;;;;5083202;28;20020;-74
2022/03/25 02:39:55;;;;;;;66.30;30.23;;;6.30;55.30;;;;;;5084862;28;20046;-74
2022/03/25 02:42:20;;;;;;;66.20;28.80;;;6.30;55.80;;;;;;5085049;28;20039;-75
2022/03/25 02:44:48;;;;;;;55.92;25.65;;;6.20;56.20;;;;;;5082467;28;20398;-75
2022/03/25 02:47:15;;;;;;;55.50;26.65;;;6.20;55.90;;;;;;5084367;28;20038;-74
2022/03/25 02:49:41;;;;;;;53.80;24.50;;;6.20;56.00;;;;;;5084984;28;20048;-74
2022/03/25 02:52:07;;;;;;;54.35;25.33;;;6.10;55.90;;;;;;5082730;28;20075;-73
2022/03/25 02:54:32;;;;;;;51.92;25.35;;;6.10;56.10;;;;;;5084474;28;20061;-73
2022/03/25 02:56:59;;;;;;;50.33;25.13;;;6.00;55.90;;;;;;5084379;28;20024;-75
2022/03/25 02:59:25;;;;;;;55.15;26.33;;;6.00;56.00;;;;;;5082799;28;20028;-75
2022/03/25 03:01:52;;;;;;;50.58;24.92;;;6.00;56.50;;;;;;5066461;28;20355;-75
2022/03/25 03:04:17;;;;;;;47.65;24.05;;;6.00;56.30;;;;;;5084124;28;20447;-75
2022/03/25 03:06:46;;;;;;;45.95;22.73;;;6.00;56.50;;;;;;5082984;28;20104;-75
2022/03/25 03:09:12;;;;;;;50.58;22.98;;;6.00;56.60;;;;;;5083991;28;20024;-74
2022/03/25 03:11:38;;;;;;;41.75;21.10;;;5.90;56.50;;;;;;5083762;28;20032;-75
2022/03/25 03:14:04;;;;;;;48.85;23.02;;;5.90;57.00;;;;;;5082563;28;20062;-75
2022/03/25 03:16:31;;;;;;;56.33;26.02;;;5.90;56.70;;;;;;5084091;28;20020;-75
2022/03/25 03:18:57;;;;;;;76.82;26.95;;;5.90;57.00;;;;;;5083852;28;20021;-75
2022/03/25 03:21:24;;;;;;;72.35;27.92;;;5.80;57.00;;;;;;5082476;28;20059;-74
2022/03/25 03:23:54;;;;;;;59.58;23.67;;;5.80;57.20;;;;;;5084034;28;20020;-73
2022/03/25 03:26:20;;;;;;;69.50;27.42;;;5.80;56.50;;;;;;5083760;28;20121;-74
2022/03/25 03:28:46;;;;;;;74.82;31.35;;;5.70;56.60;;;;;;5082044;28;20024;-77
2022/03/25 03:31:12;;;;;;;61.75;27.25;;;5.80;56.30;;;;;;5083569;28;20111;-75
2022/03/25 03:33:38;;;;;;;45.35;21.73;;;5.70;56.10;;;;;;5083431;28;20096;-75
2022/03/25 03:36:04;;;;;;;41.85;21.95;;;5.70;56.50;;;;;;5082299;28;20182;-77
2022/03/25 03:38:30;;;;;;;52.65;23.75;;;5.70;56.60;;;;;;5083456;28;20420;-76
2022/03/25 03:40:56;;;;;;;59.25;24.23;;;5.60;57.00;;;;;;5083268;28;20109;-76
2022/03/25 03:43:22;;;;;;;47.90;24.00;;;5.60;57.10;;;;;;5082515;28;20344;-75
2022/03/25 03:45:48;;;;;;;53.00;23.73;;;5.50;57.50;;;;;;5083885;28;20043;-74
2022/03/25 03:48:14;;;;;;;52.33;26.23;;;5.50;57.80;;;;;;5082560;28;20027;-75
2022/03/25 03:50:40;;;;;;;58.45;26.90;;;5.50;57.80;;;;;;5082046;28;20378;-75
2022/03/25 03:53:07;;;;;;;59.28;26.67;;;5.40;58.00;;;;;;5083501;28;20415;-77
2022/03/25 03:55:33;;;;;;;53.67;24.52;;;5.40;57.60;;;;;;5080804;28;20454;-76
2022/03/25 03:57:59;;;;;;;44.72;23.63;;;5.40;57.70;;;;;;5083309;28;20021;-76
2022/03/25 04:00:25;;;;;;;49.90;22.95;;;5.30;57.70;;;;;;5081579;28;20032;-77
2022/03/25 04:02:51;;;;;;;45.42;21.80;;;5.30;57.70;;;;;;5083198;28;20024;-75
2022/03/25 04:05:17;;;;;;;50.53;22.23;;;5.20;58.10;;;;;;5083117;28;20471;-76
2022/03/25 04:07:47;;;;;;;45.22;21.30;;;5.10;59.10;;;;;;5081559;28;20052;-74
2022/03/25 04:10:18;;;;;;;62.33;30.17;;;5.10;58.50;;;;;;5082075;28;20030;-75
2022/03/25 04:12:44;;;;;;;55.78;27.88;;;5.10;58.60;;;;;;5081457;28;20044;-76
2022/03/25 04:15:11;;;;;;;58.85;28.13;;;5.00;58.60;;;;;;5065343;28;20016;-73
2022/03/25 04:17:41;;;;;;;60.97;27.58;;;5.00;59.20;;;;;;5082761;28;20095;-76
2022/03/25 04:20:08;;;;;;;58.20;26.10;;;4.90;59.40;;;;;;5081199;28;20052;-76
2022/03/25 04:22:34;;;;;;;57.67;25.80;;;4.90;59.70;;;;;;5082785;28;20537;-74
2022/03/25 04:25:00;;;;;;;59.90;26.55;;;4.90;59.90;;;;;;5083176;28;20103;-75
2022/03/25 04:27:26;;;;;;;57.03;27.13;;;4.80;59.60;;;;;;5080965;28;20028;-75
2022/03/25 04:29:52;;;;;;;54.75;25.10;;;4.80;59.50;;;;;;5082562;28;20036;-75
2022/03/25 04:32:18;;;;;;;52.30;23.65;;;4.80;59.50;;;;;;5083058;28;20021;-75
2022/03/25 04:34:44;;;;;;;58.38;24.08;;;4.80;59.50;;;;;;5081181;28;20086;-75
2022/03/25 04:37:10;;;;;;;52.72;23.42;;;4.90;59.50;;;;;;5083380;28;20095;-74
2022/03/25 04:39:37;;;;;;;47.25;23.00;;;4.80;59.70;;;;;;5082438;28;20443;-75
2022/03/25 04:42:03;;;;;;;54.03;22.70;;;4.80;59.90;;;;;;5081208;28;20058;-74
2022/03/25 04:44:29;;;;;;;53.83;22.27;;;4.80;59.40;;;;;;5081323;28;20067;-74
2022/03/25 04:46:56;;;;;;;48.13;21.63;;;4.80;59.20;;;;;;5079930;28;20020;-75
2022/03/25 04:49:23;;;;;;;57.85;23.77;;;4.80;59.50;;;;;;5073145;28;20032;-75
2022/03/25 04:51:49;;;;;;;45.53;23.90;;;4.80;59.70;;;;;;5073130;28;20082;-76
2022/03/25 04:54:14;;;;;;;62.08;27.52;;;4.80;59.90;;;;;;5073436;28;20036;-75
2022/03/25 04:56:41;;;;;;;59.00;26.08;;;4.70;60.10;;;;;;5073587;28;20029;-76
2022/03/25 04:59:07;;;;;;;64.78;24.75;;;4.70;60.10;;;;;;5073134;28;20531;-74
2022/03/25 05:01:33;;;;;;;52.90;23.08;;;4.70;60.70;;;;;;5075375;28;20107;-74
2022/03/25 05:03:58;;;;;;;38.35;18.15;;;4.70;60.40;;;;;;5073515;28;20475;-77
2022/03/25 05:06:24;;;;;;;34.80;19.58;;;4.70;59.90;;;;;;5075387;28;20024;-74
2022/03/25 05:08:50;;;;;;;44.13;19.08;;;4.80;60.20;;;;;;5076482;28;20031;-75
2022/03/25 05:11:16;;;;;;;47.58;18.40;;;4.80;60.20;;;;;;5081585;28;20039;-74
2022/03/25 05:13:41;;;;;;;38.40;16.30;;;4.80;60.50;;;;;;5097229;28;20024;-73
2022/03/25 05:16:07;;;;;;;38.65;15.90;;;4.80;60.50;;;;;;5094203;28;20067;-75
2022/03/25 05:18:33;;;;;;;35.00;15.80;;;4.80;60.80;;;;;;5059027;28;20475;-75
2022/03/25 05:21:01;;;;;;;31.88;14.65;;;4.80;60.80;;;;;;5093943;28;20544;-76
2022/03/25 05:23:27;;;;;;;33.75;16.33;;;4.90;60.60;;;;;;5077067;28;20027;-75
2022/03/25 05:25:53;;;;;;;35.25;16.80;;;5.00;60.60;;;;;;5096896;28;20059;-77
2022/03/25 05:28:19;;;;;;;43.10;15.65;;;5.10;60.30;;;;;;5078863;28;20060;-75
2022/03/25 05:30:45;;;;;;;53.30;17.42;;;5.10;60.20;;;;;;5076843;28;20083;-76
2022/03/25 05:33:11;;;;;;;58.10;18.85;;;5.30;60.80;;;;;;5058934;28;20027;-77
2022/03/25 05:35:37;;;;;;;53.75;19.88;;;5.40;60.20;;;;;;5077204;28;20020;-75
2022/03/25 05:38:03;;;;;;;63.30;19.95;;;5.40;60.10;;;;;;5081200;28;20035;-78
2022/03/25 05:40:29;;;;;;;58.85;18.92;;;5.50;60.10;;;;;;5096866;28;20070;-75
2022/03/25 05:42:56;;;;;;;66.18;18.80;;;5.60;59.70;;;;;;5097059;28;20016;-76
2022/03/25 05:45:23;;;;;;;50.22;19.52;;;5.70;59.70;;;;;;5096565;28;20031;-75
2022/03/25 05:47:49;;;;;;;50.30;22.80;;;5.80;59.10;;;;;;5096613;28;20035;-77
2022/03/25 05:50:16;;;;;;;52.45;22.55;;;5.90;58.90;;;;;;5085277;28;20029;-76
2022/03/25 05:52:42;;;;;;;58.67;23.00;;;6.10;58.70;;;;;;5058654;28;20111;-75
2022/03/25 05:55:10;;;;;;;52.85;22.05;;;6.20;58.80;;;;;;5058386;28;20020;-75
2022/03/25 05:57:36;;;;;;;60.35;24.70;;;6.30;58.50;;;;;;5076091;28;20031;-75
2022/03/25 06:00:05;;;;;;;48.47;22.58;;;6.50;58.60;;;;;;5089462;28;20490;-76
2022/03/25 06:02:31;;;;;;;53.42;25.50;;;6.60;58.20;;;;;;5090717;28;20450;-79
2022/03/25 06:04:57;;;;;;;51.58;25.85;;;6.70;58.00;;;;;;5068601;28;20031;-76
2022/03/25 06:07:24;;;;;;;56.38;25.65;;;6.70;57.20;;;;;;5087783;28;20379;-78
2022/03/25 06:09:50;;;;;;;57.47;25.02;;;6.90;58.00;;;;;;5077717;28;20047;-77
2022/03/25 06:12:16;;;;;;;63.17;24.65;;;7.10;57.60;;;;;;5094453;28;20474;-76
2022/03/25 06:14:42;;;;;;;70.78;26.77;;;7.20;57.30;;;;;;5096037;28;20031;-78
2022/03/25 06:17:08;;;;;;;65.40;25.92;;;7.40;56.70;;;;;;5096116;28;20035;-76
2022/03/25 06:19:35;;;;;;;55.63;25.70;;;7.60;56.90;;;;;;5094963;28;20032;-77
2022/03/25 06:22:00;;;;;;;63.13;26.33;;;7.70;56.10;;;;;;5096166;28;20070;-76
2022/03/25 06:24:26;;;;;;;53.75;24.38;;;7.90;56.30;;;;;;5096137;28;20032;-78
2022/03/25 06:26:52;;;;;;;63.80;24.70;;;8.00;56.60;;;;;;5095962;28;20032;-77
2022/03/25 06:29:19;;;;;;;73.22;25.85;;;8.30;56.00;;;;;;5089664;28;20045;-74
2022/03/25 06:31:46;;;;;;;63.17;27.80;;;8.40;56.10;;;;;;5084552;28;20532;-75
2022/03/25 06:34:12;;;;;;;75.53;30.23;;;8.60;56.40;;;;;;5085961;28;20074;-75
2022/03/25 06:36:37;;;;;;;69.20;28.17;;;8.80;55.60;;;;;;5084856;28;20012;-75
2022/03/25 06:39:03;;;;;;;51.33;24.15;;;9.00;53.90;;;;;;5085007;28;20024;-77
2022/03/25 06:41:29;;;;;;;52.85;26.13;;;9.20;52.20;;;;;;5086141;28;20028;-77
2022/03/25 06:43:56;;;;;;;55.53;25.17;;;9.30;52.50;;;;;;5084152;28;20095;-78
2022/03/25 06:46:22;;;;;;;53.13;25.77;;;9.50;52.00;;;;;;5082289;28;20030;-75
2022/03/25 06:48:48;;;;;;;66.70;28.60;;;9.70;52.10;;;;;;5075555;28;20104;-76
2022/03/25 06:51:14;;;;;;;50.97;25.75;;;9.90;52.40;;;;;;5075172;28;20165;-77
2022/03/25 06:53:40;;;;;;;57.75;27.27;;;10.10;51.30;;;;;;5075356;28;20104;-78
2022/03/25 06:56:06;;;;;;;56.10;24.20;;;10.30;51.40;;;;;;5075657;28;20058;-78
2022/03/25 06:58:36;;;;;;;58.33;23.90;;;10.40;51.00;;;;;;5074984;28;20025;-77
2022/03/25 07:01:02;;;;;;;44.05;22.88;;;10.60;51.00;;;;;;5075270;28;20028;-79
2022/03/25 07:03:28;;;;;;;49.63;25.27;;;10.60;50.50;;;;;;5074894;28;20029;-78
2022/03/25 07:05:56;;;;;;;47.75;24.63;;;10.80;50.30;;;;;;5057272;28;20081;-77
2022/03/25 07:08:22;;;;;;;45.42;21.98;;;10.90;50.00;;;;;;5074662;28;20460;-76
2022/03/25 07:10:48;;;;;;;43.35;21.08;;;11.10;49.40;;;;;;5074927;28;20036;-78
2022/03/25 07:13:15;;;;;;;41.45;20.08;;;11.30;48.70;;;;;;5074806;28;20043;-79
2022/03/25 07:15:41;;;;;;;43.85;21.70;;;11.40;48.80;;;;;;5056860;28;20036;-76
2022/03/25 07:18:06;;;;;;;44.55;22.27;;;11.50;49.10;;;;;;5074855;28;20028;-77
2022/03/25 07:20:32;;;;;;;46.00;22.80;;;11.70;48.80;;;;;;5074972;28;20075;-77
2022/03/25 07:22:58;;;;;;;49.38;24.05;;;11.80;48.20;;;;;;5074646;28;20020;-79
2022/03/25 07:25:25;;;;;;;48.33;23.67;;;12.00;49.20;;;;;;5074949;28;20025;-77
2022/03/25 07:27:52;;;;;;;42.35;20.63;;;12.30;48.00;;;;;;5075019;28;20025;-78
2022/03/25 07:30:18;;;;;;;41.67;21.48;;;12.40;47.50;;;;;;5074112;28;20458;-79
2022/03/25 07:32:44;;;;;;;56.72;21.90;;;12.50;48.20;;;;;;5074062;28;20036;-75
2022/03/25 07:35:11;;;;;;;54.35;21.67;;;12.60;46.80;;;;;;5074718;28;20040;-78
2022/03/25 07:37:41;;;;;;;50.60;22.55;;;12.90;47.00;;;;;;5074121;28;20079;-77
2022/03/25 07:40:09;;;;;;;42.03;22.42;;;13.10;46.90;;;;;;5074421;28;20028;-76
2022/03/25 07:42:39;;;;;;;46.58;22.10;;;13.30;46.40;;;;;;5074346;28;20031;-77
2022/03/25 07:45:09;;;;;;;45.08;22.63;;;13.50;45.20;;;;;;5040125;28;20119;-77
2022/03/25 07:47:49;;;;;;;42.45;21.92;;;13.60;44.10;;;;;;5074319;28;20455;-77
2022/03/25 07:50:17;;;;;;;43.97;20.83;;;13.90;44.70;;;;;;5074130;28;20067;-77
2022/03/25 07:52:43;;;;;;;33.97;17.50;;;14.30;44.50;;;;;;5056535;28;20035;-78
2022/03/25 07:55:10;;;;;;;36.85;19.88;;;14.50;42.20;;;;;;5074315;28;20028;-78
2022/03/25 07:57:38;;;;;;;41.58;18.17;;;14.50;41.70;;;;;;5074061;28;20025;-76
2022/03/25 08:00:11;;;;;;;35.47;20.10;;;14.70;41.60;;;;;;5073842;28;20115;-79
2022/03/25 08:02:46;;;;;;;34.70;18.88;;;15.10;40.40;;;;;;5074308;28;20017;-76
2022/03/25 08:05:13;;;;;;;33.38;18.02;;;15.40;41.40;;;;;;5073712;28;20025;-77
2022/03/25 08:07:52;;;;;;;35.13;17.38;;;15.50;40.00;;;;;;5056108;28;20025;-80
2022/03/25 08:10:29;;;;;;;35.15;17.55;;;15.60;39.00;;;;;;5073867;28;20024;-76
2022/03/25 08:12:56;;;;;;;38.47;15.10;;;16.00;39.30;;;;;;5074246;28;20059;-78
2022/03/25 08:15:24;;;;;;;22.95;13.00;;;16.00;37.40;;;;;;5073616;28;20459;-80
2022/03/25 08:18:16;;;;;;;22.77;13.02;;;16.10;38.00;;;;;;5055875;28;20035;-78
2022/03/25 08:20:47;;;;;;;23.98;12.20;;;16.40;38.00;;;;;;5073603;28;20082;-78
2022/03/25 08:28:59;;;;;;;27.98;15.57;;;16.60;37.30;;;;;;5073277;28;20027;-77
2022/03/25 08:31:25;;;;;;;21.38;11.52;;;16.90;36.90;;;;;;5073757;28;20037;-78
2022/03/25 08:33:51;;;;;;;26.60;11.73;;;16.50;35.30;;;;;;5073530;28;20429;-77
2022/03/25 08:36:17;;;;;;;23.02;9.90;;;17.10;36.00;;;;;;5073384;28;20063;-78
2022/03/25 08:38:44;;;;;;;17.00;10.32;;;17.10;35.50;;;;;;5055486;28;20386;-77
2022/03/25 08:41:10;;;;;;;22.25;11.35;;;17.20;34.40;;;;;;5073515;28;20474;-78
2022/03/25 08:43:36;;;;;;;22.60;11.57;;;17.50;34.30;;;;;;5055614;28;20383;-77
2022/03/25 08:46:04;;;;;;;17.92;11.05;;;17.60;35.20;;;;;;5055537;28;20414;-84
2022/03/25 08:48:30;;;;;;;19.10;10.63;;;17.70;34.20;;;;;;5055649;28;20025;-76
2022/03/25 08:50:56;;;;;;;21.40;11.93;;;17.70;33.60;;;;;;5073307;28;20098;-77
2022/03/25 08:53:22;;;;;;;22.23;10.77;;;17.90;34.30;;;;;;5072161;28;20032;-77
2022/03/25 08:55:48;;;;;;;21.40;11.50;;;17.90;34.80;;;;;;5073280;28;20024;-78
2022/03/25 08:58:13;;;;;;;19.90;11.70;;;17.90;34.70;;;;;;5055645;28;20032;-77
2022/03/25 09:00:39;;;;;;;31.27;15.00;;;18.10;33.60;;;;;;5073384;28;20020;-77
2022/03/25 09:03:06;;;;;;;18.48;10.57;;;18.50;34.40;;;;;;5073812;28;20052;-78
2022/03/25 09:05:32;;;;;;;21.20;11.20;;;18.60;33.70;;;;;;5055112;28;20371;-76
2022/03/25 09:07:58;;;;;;;20.00;11.63;;;18.70;34.10;;;;;;5073085;28;20031;-77
2022/03/25 09:10:24;;;;;;;23.52;12.57;;;18.70;31.80;;;;;;5072880;28;20036;-77
2022/03/25 09:12:50;;;;;;;20.45;10.38;;;18.40;30.80;;;;;;5073242;28;20020;-77
2022/03/25 09:15:16;;;;;;;20.35;11.43;;;18.50;31.00;;;;;;5072950;28;20082;-76
2022/03/25 09:17:45;;;;;;;20.30;9.77;;;18.60;31.80;;;;;;5073167;28;20463;-77
2022/03/25 09:20:13;;;;;;;17.90;9.95;;;19.10;32.70;;;;;;5073426;28;20035;-77
2022/03/25 09:22:39;;;;;;;24.77;12.02;;;19.40;31.30;;;;;;5073183;28;20111;-76
2022/03/25 09:25:07;;;;;;;20.95;10.48;;;19.50;31.20;;;;;;5072967;28;20466;-76
2022/03/25 09:27:34;;;;;;;20.55;9.43;;;19.40;29.40;;;;;;5072606;28;20440;-76
2022/03/25 09:30:00;;;;;;;20.27;10.75;;;19.30;30.00;;;;;;5072716;28;20106;-76
2022/03/25 09:32:26;;;;;;;19.55;11.02;;;19.50;31.20;;;;;;5073215;28;20032;-75
2022/03/25 09:35:11;;;;;;;15.80;8.98;;;19.80;30.20;;;;;;5072864;28;20081;-75
2022/03/25 09:37:45;;;;;;;23.98;13.27;;;19.90;29.30;;;;;;5072951;28;20021;-75
2022/03/25 09:40:14;;;;;;;19.52;9.80;;;20.30;29.70;;;;;;5073063;28;20025;-77
2022/03/25 09:42:41;;;;;;;15.65;10.05;;;20.20;28.00;;;;;;5072498;28;20029;-75
2022/03/25 09:45:09;;;;;;;24.23;10.20;;;20.00;29.80;;;;;;5072539;28;20031;-77
2022/03/25 09:47:35;;;;;;;15.50;9.57;;;19.90;29.50;;;;;;5072623;28;20074;-77
2022/03/25 09:50:03;;;;;;;16.30;9.82;;;20.00;29.40;;;;;;5054588;28;20033;-74
2022/03/25 09:52:31;;;;;;;18.67;9.02;;;19.90;28.30;;;;;;5072741;28;20025;-77
2022/03/25 09:54:58;;;;;;;15.25;8.85;;;19.90;29.00;;;;;;5074773;28;20450;-76
2022/03/25 09:57:28;;;;;;;17.67;10.50;;;20.40;28.40;;;;;;5075987;28;20585;-76
2022/03/25 09:59:54;;;;;;;23.38;11.77;;;20.30;28.60;;;;;;5076233;28;20025;-76
2022/03/25 10:02:20;;;;;;;19.73;12.05;;;20.50;27.80;;;;;;5076043;28;20375;-77
2022/03/25 10:04:48;;;;;;;14.68;8.70;;;20.70;29.70;;;;;;5076238;28;20082;-75
2022/03/25 10:07:20;;;;;;;18.38;10.43;;;20.70;28.90;;;;;;5058052;28;20490;-75
2022/03/25 10:09:48;;;;;;;19.92;8.98;;;21.20;28.80;;;;;;5076220;28;20099;-76
2022/03/25 10:12:21;;;;;;;18.33;8.75;;;20.80;27.60;;;;;;5075684;28;20028;-76
2022/03/25 10:14:51;;;;;;;19.05;10.13;;;20.70;28.40;;;;;;5076046;28;20136;-75
2022/03/25 10:17:18;;;;;;;17.13;8.13;;;21.20;28.80;;;;;;5057809;28;20028;-76
2022/03/25 10:19:54;;;;;;;18.33;10.60;;;21.10;26.60;;;;;;5057871;28;20056;-77
2022/03/25 10:22:20;;;;;;;15.88;8.80;;;21.60;28.60;;;;;;5076285;28;20039;-76
2022/03/25 10:24:52;;;;;;;13.82;7.70;;;21.70;27.80;;;;;;5075727;28;20032;-74
2022/03/25 10:27:28;;;;;;;19.92;8.57;;;21.30;27.20;;;;;;5075741;28;20025;-75
2022/03/25 10:29:54;;;;;;;14.90;7.80;;;21.60;27.30;;;;;;5057542;28;20053;-78
2022/03/25 10:32:25;;;;;;;20.70;8.02;;;21.10;28.10;;;;;;5075118;28;20375;-74
2022/03/25 10:35:09;;;;;;;19.75;8.48;;;21.40;28.20;;;;;;5075370;28;20063;-76
2022/03/25 10:37:36;;;;;;;12.73;6.28;;;21.50;26.70;;;;;;5075669;28;20032;-75
2022/03/25 10:40:07;;;;;;;19.02;8.50;;;21.60;26.40;;;;;;5075294;28;20020;-74
2022/03/25 10:42:33;;;;;;;15.85;7.85;;;21.40;27.50;;;;;;5074736;28;20115;-75
2022/03/25 10:45:00;;;;;;;14.75;7.20;;;21.90;27.40;;;;;;5057314;28;20028;-75
2022/03/25 10:47:28;;;;;;;12.25;7.07;;;22.10;26.70;;;;;;5075341;28;20467;-76
2022/03/25 10:50:10;;;;;;;17.90;7.43;;;22.00;27.00;;;;;;5075493;28;20031;-76
2022/03/25 10:52:35;;;;;;;14.68;7.35;;;21.80;26.30;;;;;;5075263;28;20056;-76
2022/03/25 10:55:21;;;;;;;12.27;6.90;;;21.80;26.90;;;;;;5075177;28;20427;-76
2022/03/25 10:57:52;;;;;;;19.98;7.30;;;22.10;25.20;;;;;;5075192;28;20021;-74
2022/03/25 11:00:18;;;;;;;13.60;7.47;;;22.70;27.20;;;;;;5057203;28;20440;-75
2022/03/25 11:02:45;;;;;;;14.75;6.80;;;22.90;26.50;;;;;;5074734;28;20031;-76
2022/03/25 11:05:14;;;;;;;16.25;7.78;;;23.00;26.00;;;;;;5074689;28;20024;-76
2022/03/25 11:07:45;;;;;;;15.45;8.20;;;23.00;24.90;;;;;;5075143;28;20528;-76
2022/03/25 11:10:13;;;;;;;17.92;7.90;;;23.00;25.30;;;;;;5074705;28;20025;-76
2022/03/25 11:12:47;;;;;;;29.23;8.18;;;23.10;25.00;;;;;;5074799;28;20020;-76
2022/03/25 11:15:14;;;;;;;15.13;7.72;;;;;;;;;;5075111;28;20057;-77
2022/03/25 11:17:42;;;;;;;13.60;6.85;;;24.00;25.10;;;;;;5074929;28;20029;-75
2022/03/25 11:20:10;;;;;;;14.00;8.13;;;23.10;23.10;;;;;;5074104;28;20048;-78
2022/03/25 11:22:51;;;;;;;14.70;8.82;;;23.60;25.40;;;;;;5074508;28;20091;-75
2022/03/25 11:25:23;;;;;;;11.10;8.25;;;24.10;25.50;;;;;;5074938;28;20020;-76
2022/03/25 11:27:54;;;;;;;17.88;8.95;;;23.50;22.80;;;;;;5074956;28;20112;-77
2022/03/25 11:30:20;;;;;;;21.15;10.00;;;23.70;25.00;;;;;;5056562;28;20045;-79
2022/03/25 11:33:03;;;;;;;14.38;8.85;;;23.40;24.60;;;;;;5074973;28;20079;-75
2022/03/25 11:35:30;;;;;;;14.88;8.93;;;22.70;24.20;;;;;;5074255;28;20023;-77
2022/03/25 11:38:11;;;;;;;18.00;10.77;;;23.10;24.60;;;;;;5074315;28;20032;-75
2022/03/25 11:40:44;;;;;;;21.23;11.95;;;23.40;25.20;;;;;;5054537;28;20033;-74
2022/03/25 11:43:25;;;;;;;14.27;9.88;;;;;;;;;;5073138;28;20086;-75
2022/03/25 11:46:00;;;;;;;16.13;9.60;;;23.60;24.80;;;;;;5073134;28;20409;-76
2022/03/25 11:48:26;;;;;;;14.70;8.43;;;24.10;25.30;;;;;;5073901;28;20035;-75
2022/03/25 11:50:55;;;;;;;14.15;8.20;;;23.70;24.70;;;;;;5073988;28;20036;-76
2022/03/25 11:53:22;;;;;;;14.10;8.50;;;23.90;25.20;;;;;;5074376;28;20028;-76
2022/03/25 11:56:03;;;;;;;14.10;8.68;;;24.00;25.10;;;;;;5056120;28;20414;-75
2022/03/25 11:58:38;;;;;;;13.57;9.68;;;23.70;24.80;;;;;;5074041;28;20024;-77
2022/03/25 12:01:06;;;;;;;20.55;10.05;;;23.90;24.40;;;;;;5073984;28;20039;-74
2022/03/25 12:03:49;;;;;;;18.17;9.35;;;23.80;24.50;;;;;;5074033;28;20081;-75
2022/03/25 12:06:16;;;;;;;11.88;8.35;;;23.70;24.10;;;;;;5073895;28;20025;-75
2022/03/25 12:09:05;;;;;;;14.15;9.35;;;23.20;23.70;;;;;;5055892;28;20073;-74
2022/03/25 12:11:56;;;;;;;15.27;8.48;;;23.50;24.10;;;;;;5073793;28;20060;-77
2022/03/25 12:14:32;;;;;;;16.77;8.63;;;23.60;23.80;;;;;;5074000;28;20138;-75
2022/03/25 12:17:07;;;;;;;17.90;9.48;;;23.20;23.80;;;;;;5073191;28;20027;-76
2022/03/25 12:19:38;;;;;;;17.73;9.18;;;23.20;24.10;;;;;;5073935;28;20078;-75
2022/03/25 12:22:19;;;;;;;16.20;9.98;;;23.50;24.10;;;;;;5056007;28;20041;-75
2022/03/25 12:24:51;;;;;;;11.85;9.00;;;23.80;24.10;;;;;;5055450;28;20033;-75
2022/03/25 12:27:17;;;;;;;18.42;8.95;;;23.90;24.90;;;;;;5073731;28;20035;-77
2022/03/25 12:29:51;;;;;;;14.93;9.25;;;23.50;24.60;;;;;;5072999;28;20487;-77
2022/03/25 12:32:19;;;;;;;11.38;8.73;;;23.30;24.00;;;;;;5073696;28;20028;-76
2022/03/25 12:34:59;;;;;;;16.17;9.10;;;23.60;24.20;;;;;;5073791;28;20094;-74
2022/03/25 12:37:32;;;;;;;13.93;9.90;;;23.30;23.80;;;;;;5073864;28;20487;-75
2022/03/25 12:40:19;;;;;;;13.95;9.20;;;23.50;23.20;;;;;;5073507;28;20472;-73
2022/03/25 12:42:50;;;;;;;20.10;11.20;;;23.40;23.60;;;;;;5074104;28;20078;-74
2022/03/25 12:45:17;;;;;;;13.48;8.15;;;23.30;22.90;;;;;;5073490;28;20025;-77